createdAt,value
2023-04-23T00:00:07.129Z,13.99
2023-04-23T00:02:39.999Z,13.96
2023-04-23T00:05:08.180Z,13.91
2023-04-23T00:07:36.345Z,13.79
2023-04-23T00:10:05.736Z,13.95
2023-04-23T00:12:33.414Z,13.89
2023-04-23T00:15:01.741Z,13.57
2023-04-23T00:17:29.008Z,13.74
2023-04-23T00:19:56.253Z,13.79
2023-04-23T00:22:23.446Z,13.58
2023-04-23T00:24:50.869Z,13.70
2023-04-23T00:27:18.268Z,13.81
2023-04-23T00:29:46.509Z,13.89
2023-04-23T00:32:14.891Z,13.72
2023-04-23T00:34:42.654Z,13.73
2023-04-23T00:37:10.249Z,13.71
2023-04-23T00:39:38.824Z,13.63
2023-04-23T00:42:12.409Z,13.67
2023-04-23T00:44:40.865Z,13.64
2023-04-23T00:47:08.806Z,13.57
2023-04-23T00:49:36.857Z,13.63
2023-04-23T00:52:04.140Z,13.59
2023-04-23T00:54:31.643Z,13.45
2023-04-23T00:56:59.524Z,13.64
2023-04-23T00:59:28.879Z,13.38
2023-04-23T01:01:56.777Z,13.45
2023-04-23T01:04:24.800Z,13.46
2023-04-23T01:06:54.669Z,13.40
2023-04-23T01:09:22.635Z,13.50
2023-04-23T01:11:51.023Z,13.48
2023-04-23T01:14:18.335Z,13.46
2023-04-23T01:16:47.122Z,13.43
2023-04-23T01:19:16.204Z,13.23
2023-04-23T01:21:44.056Z,13.32
2023-04-23T01:24:11.965Z,13.29
2023-04-23T01:26:40.754Z,12.99
2023-04-23T01:29:09.963Z,13.03
2023-04-23T01:31:37.437Z,12.95
2023-04-23T01:34:05.258Z,13.09
2023-04-23T01:36:33.316Z,12.93
2023-04-23T01:39:00.650Z,12.90
2023-04-23T01:41:28.905Z,13.03
2023-04-23T01:43:57.480Z,13.04
2023-04-23T01:46:25.243Z,12.82
2023-04-23T01:48:52.570Z,12.89
2023-04-23T01:51:20.282Z,12.80
2023-04-23T01:53:47.439Z,12.68
2023-04-23T01:56:16.408Z,12.83
2023-04-23T01:58:44.209Z,12.62
2023-04-23T02:01:11.729Z,12.56
2023-04-23T02:03:39.179Z,12.66
2023-04-23T02:06:06.823Z,12.64
2023-04-23T02:08:34.091Z,12.61
2023-04-23T02:11:01.427Z,12.71
2023-04-23T02:13:28.622Z,12.52
2023-04-23T02:15:56.017Z,12.66
2023-04-23T02:18:23.451Z,12.60
2023-04-23T02:20:51.023Z,12.65
2023-04-23T02:23:18.355Z,12.64
2023-04-23T02:25:46.098Z,12.77
2023-04-23T02:28:13.518Z,12.60
2023-04-23T02:30:46.720Z,12.56
2023-04-23T02:33:14.219Z,12.39
2023-04-23T02:35:41.576Z,12.38
2023-04-23T02:38:08.880Z,12.15
2023-04-23T02:40:36.631Z,12.15
2023-04-23T02:43:03.992Z,11.98
2023-04-23T02:45:31.858Z,11.98
2023-04-23T02:47:59.802Z,11.82
2023-04-23T02:50:27.199Z,11.91
2023-04-23T02:52:54.520Z,12.03
2023-04-23T02:55:21.905Z,12.02
2023-04-23T02:57:49.101Z,11.73
2023-04-23T03:00:17.050Z,11.70
2023-04-23T03:02:45.460Z,11.69
2023-04-23T03:05:12.961Z,11.71
2023-04-23T03:07:40.869Z,11.59
2023-04-23T03:10:08.807Z,11.80
2023-04-23T03:12:36.436Z,11.67
2023-04-23T03:15:04.088Z,11.72
2023-04-23T03:17:33.463Z,11.67
2023-04-23T03:20:01.333Z,11.66
2023-04-23T03:22:29.031Z,11.51
2023-04-23T03:24:56.506Z,11.40
2023-04-23T03:27:23.798Z,11.31
2023-04-23T03:29:51.203Z,11.43
2023-04-23T03:32:18.591Z,11.25
2023-04-23T03:34:45.936Z,11.31
2023-04-23T03:37:13.619Z,11.18
2023-04-23T03:39:41.409Z,11.12
2023-04-23T03:42:09.256Z,11.08
2023-04-23T03:44:38.326Z,11.24
2023-04-23T03:47:06.225Z,11.26
2023-04-23T03:49:34.811Z,11.13
2023-04-23T03:52:02.411Z,10.95
2023-04-23T03:54:31.466Z,11.06
2023-04-23T03:57:09.877Z,10.99
2023-04-23T03:59:43.878Z,11.09
2023-04-23T04:02:11.556Z,11.01
2023-04-23T04:04:39.099Z,10.88
2023-04-23T04:07:07.723Z,10.80
2023-04-23T04:09:35.008Z,10.91
2023-04-23T04:12:02.698Z,11.06
2023-04-23T04:14:31.581Z,11.10
2023-04-23T04:16:58.933Z,10.91
2023-04-23T04:19:26.164Z,10.91
2023-04-23T04:21:53.408Z,10.85
2023-04-23T04:24:24.941Z,10.81
2023-04-23T04:26:54.050Z,10.66
2023-04-23T04:29:21.350Z,10.65
2023-04-23T04:31:48.940Z,10.76
2023-04-23T04:34:17.950Z,10.66
2023-04-23T04:36:45.715Z,10.55
2023-04-23T04:39:14.789Z,10.48
2023-04-23T04:41:42.925Z,10.45
2023-04-23T04:44:10.155Z,10.82
2023-04-23T04:46:40.601Z,10.63
2023-04-23T04:49:08.973Z,10.78
2023-04-23T04:51:40.972Z,10.37
2023-04-23T04:54:08.414Z,10.59
2023-04-23T04:56:35.688Z,10.55
2023-04-23T04:59:04.037Z,10.76
2023-04-23T05:01:32.500Z,10.64
2023-04-23T05:04:00.045Z,10.59
2023-04-23T05:06:28.814Z,10.75
2023-04-23T05:08:56.136Z,10.75
2023-04-23T05:11:23.384Z,10.92
2023-04-23T05:13:51.524Z,10.86
2023-04-23T05:16:19.503Z,10.90
2023-04-23T05:18:47.060Z,10.72
2023-04-23T05:21:15.323Z,10.83
2023-04-23T05:23:42.647Z,10.87
2023-04-23T05:26:10.173Z,10.86
2023-04-23T05:28:37.701Z,11.16
2023-04-23T05:31:05.116Z,11.08
2023-04-23T05:33:39.186Z,10.98
2023-04-23T05:36:14.004Z,10.95
2023-04-23T05:38:41.282Z,10.95
2023-04-23T05:41:08.571Z,10.73
2023-04-23T05:43:35.799Z,10.85
2023-04-23T05:46:04.740Z,10.86
2023-04-23T05:48:32.006Z,10.83
2023-04-23T05:50:59.584Z,10.75
2023-04-23T05:53:28.054Z,10.84
2023-04-23T05:55:55.464Z,10.91
2023-04-23T05:58:23.363Z,11.15
2023-04-23T06:00:50.624Z,11.13
2023-04-23T06:03:18.100Z,11.02
2023-04-23T06:05:45.696Z,10.95
2023-04-23T06:08:12.957Z,11.07
2023-04-23T06:10:40.449Z,11.08
2023-04-23T06:13:07.767Z,11.11
2023-04-23T06:15:36.168Z,11.04
2023-04-23T06:18:03.565Z,10.84
2023-04-23T06:20:30.973Z,10.99
2023-04-23T06:22:58.195Z,11.07
2023-04-23T06:25:25.879Z,11.20
2023-04-23T06:27:54.584Z,11.20
2023-04-23T06:30:25.243Z,11.51
2023-04-23T06:32:53.248Z,11.27
2023-04-23T06:35:20.700Z,11.40
2023-04-23T06:37:48.069Z,11.33
2023-04-23T06:40:15.722Z,11.42
2023-04-23T06:42:43.025Z,11.32
2023-04-23T06:45:33.235Z,11.32
2023-04-23T06:48:00.835Z,11.48
2023-04-23T06:50:28.159Z,11.52
2023-04-23T06:52:56.306Z,11.44
2023-04-23T06:55:26.232Z,11.45
2023-04-23T06:57:53.591Z,11.45
2023-04-23T07:00:21.810Z,11.48
2023-04-23T07:02:49.740Z,11.56
2023-04-23T07:05:17.804Z,11.52
2023-04-23T07:07:45.245Z,11.26
2023-04-23T07:10:12.805Z,11.48
2023-04-23T07:12:41.355Z,11.72
2023-04-23T07:15:09.291Z,11.63
2023-04-23T07:17:36.992Z,11.51
2023-04-23T07:20:06.702Z,11.45
2023-04-23T07:22:34.424Z,11.34
2023-04-23T07:25:02.531Z,11.30
2023-04-23T07:27:29.804Z,11.37
2023-04-23T07:29:58.570Z,11.51
2023-04-23T07:32:28.233Z,11.51
2023-04-23T07:34:58.463Z,11.35
2023-04-23T07:37:25.854Z,11.47
2023-04-23T07:39:53.979Z,11.57
2023-04-23T07:42:21.381Z,11.60
2023-04-23T07:44:48.699Z,11.53
2023-04-23T07:47:15.967Z,11.60
2023-04-23T07:49:43.904Z,11.39
2023-04-23T07:52:11.802Z,11.64
2023-04-23T07:54:39.188Z,11.72
2023-04-23T07:57:06.493Z,11.56
2023-04-23T07:59:33.774Z,11.75
2023-04-23T08:02:01.294Z,11.66
2023-04-23T08:04:28.905Z,11.83
2023-04-23T08:06:56.308Z,11.62
2023-04-23T08:09:23.719Z,11.83
2023-04-23T08:11:51.051Z,12.03
2023-04-23T08:14:18.676Z,11.93
2023-04-23T08:16:46.309Z,11.92
2023-04-23T08:19:13.619Z,12.08
2023-04-23T08:21:40.964Z,12.23
2023-04-23T08:24:08.335Z,12.37
2023-04-23T08:26:36.076Z,12.31
2023-04-23T08:29:05.222Z,12.29
2023-04-23T08:31:32.866Z,12.59
2023-04-23T08:34:00.265Z,12.61
2023-04-23T08:36:27.723Z,12.76
2023-04-23T08:38:54.992Z,12.80
2023-04-23T08:41:24.288Z,13.04
2023-04-23T08:44:18.515Z,13.01
2023-04-23T08:46:46.059Z,13.01
2023-04-23T08:49:17.497Z,13.11
2023-04-23T08:51:53.339Z,13.05
2023-04-23T08:54:28.408Z,13.06
2023-04-23T08:56:58.356Z,12.87
2023-04-23T08:59:30.766Z,12.97
2023-04-23T09:01:59.829Z,12.99
2023-04-23T09:04:28.089Z,12.94
2023-04-23T09:06:56.040Z,13.11
2023-04-23T09:09:23.842Z,13.08
2023-04-23T09:11:53.401Z,13.21
2023-04-23T09:14:25.558Z,12.97
2023-04-23T09:16:53.621Z,12.78
2023-04-23T09:19:21.022Z,12.91
2023-04-23T09:21:49.882Z,13.15
2023-04-23T09:24:17.986Z,13.25
2023-04-23T09:26:46.883Z,13.21
2023-04-23T09:29:19.187Z,13.15
2023-04-23T09:31:47.948Z,13.22
2023-04-23T09:34:19.850Z,13.29
2023-04-23T09:36:52.948Z,13.35
2023-04-23T09:39:22.837Z,13.25
2023-04-23T09:41:54.006Z,13.41
2023-04-23T09:44:26.613Z,13.50
2023-04-23T09:46:54.287Z,13.73
2023-04-23T09:49:21.978Z,13.63
2023-04-23T09:51:49.843Z,13.71
2023-04-23T09:54:26.049Z,14.12
2023-04-23T09:56:58.776Z,14.29
2023-04-23T10:02:02.611Z,14.05
2023-04-23T10:04:30.244Z,13.87
2023-04-23T10:07:17.393Z,13.80
2023-04-23T10:09:46.404Z,13.70
2023-04-23T10:14:47.009Z,13.99
2023-04-23T10:17:14.786Z,13.75
2023-04-23T10:19:43.469Z,13.62
2023-04-23T10:22:19.630Z,13.67
2023-04-23T10:24:53.042Z,13.89
2023-04-23T10:29:53.755Z,14.36
2023-04-23T10:32:21.492Z,14.42
2023-04-23T10:34:48.865Z,14.23
2023-04-23T10:37:19.482Z,14.12
2023-04-23T10:39:54.418Z,13.72
2023-04-23T10:42:22.487Z,14.07
2023-04-23T10:44:59.544Z,14.17
2023-04-23T10:47:32.210Z,14.35
2023-04-23T10:50:23.601Z,14.14
2023-04-23T10:52:53.757Z,13.97
2023-04-23T10:55:26.388Z,13.82
2023-04-23T10:58:05.185Z,14.16
2023-04-23T11:00:41.456Z,14.14
2023-04-23T11:03:34.585Z,14.14
2023-04-23T11:06:04.429Z,14.15
2023-04-23T11:08:32.634Z,13.80
2023-04-23T11:11:01.618Z,13.90
2023-04-23T11:13:30.053Z,14.13
2023-04-23T11:16:18.239Z,13.93
2023-04-23T11:19:11.371Z,14.04
2023-04-23T11:22:00.935Z,13.91
2023-04-23T11:24:37.035Z,14.03
2023-04-23T11:27:11.826Z,13.97
2023-04-23T11:29:41.058Z,13.73
2023-04-23T11:32:13.528Z,13.74
2023-04-23T11:34:43.235Z,13.53
2023-04-23T11:37:12.198Z,13.72
2023-04-23T11:39:41.585Z,13.65
2023-04-23T11:42:14.108Z,13.43
2023-04-23T11:44:42.920Z,13.51
2023-04-23T11:47:12.517Z,13.65
2023-04-23T11:49:41.497Z,13.52
2023-04-23T11:52:10.290Z,13.42
2023-04-23T11:54:40.483Z,13.36
2023-04-23T11:57:08.567Z,13.48
2023-04-23T11:59:36.045Z,13.72
2023-04-23T12:02:03.448Z,13.87
2023-04-23T12:04:33.066Z,13.92
2023-04-23T12:07:00.625Z,14.19
2023-04-23T12:09:29.562Z,14.32
2023-04-23T12:11:58.670Z,14.36
2023-04-23T12:14:31.232Z,14.32
2023-04-23T12:16:59.628Z,14.56
2023-04-23T12:19:28.948Z,14.63
2023-04-23T12:22:03.604Z,14.28
2023-04-23T12:24:44.658Z,14.23
2023-04-23T12:27:15.895Z,14.55
2023-04-23T12:29:47.435Z,14.57
2023-04-23T12:32:15.659Z,14.95
2023-04-23T12:34:53.529Z,15.13
2023-04-23T12:37:38.987Z,14.96
2023-04-23T12:40:07.401Z,15.14
2023-04-23T12:42:35.461Z,15.14
2023-04-23T12:45:10.077Z,15.09
2023-04-23T12:47:37.422Z,15.08
2023-04-23T12:50:05.680Z,15.12
2023-04-23T12:52:33.158Z,14.65
2023-04-23T12:55:01.388Z,14.68
2023-04-23T12:57:29.112Z,14.60
2023-04-23T12:59:56.546Z,14.68
2023-04-23T13:02:25.737Z,15.12
2023-04-23T13:04:59.621Z,15.32
2023-04-23T13:07:27.039Z,15.10
2023-04-23T13:09:54.299Z,15.15
2023-04-23T13:12:21.607Z,15.24
2023-04-23T13:14:48.969Z,15.10
2023-04-23T13:17:16.443Z,14.93
2023-04-23T13:19:44.931Z,14.91
2023-04-23T13:22:12.287Z,14.54
2023-04-23T13:24:39.537Z,14.48
2023-04-23T13:27:07.255Z,14.37
2023-04-23T13:29:34.739Z,14.63
2023-04-23T13:32:02.156Z,14.54
2023-04-23T13:34:30.875Z,14.61
2023-04-23T13:37:05.535Z,14.96
2023-04-23T13:39:33.348Z,14.95
2023-04-23T13:42:09.029Z,14.81
2023-04-23T13:44:37.107Z,14.83
2023-04-23T13:47:04.562Z,14.65
2023-04-23T13:49:31.804Z,14.69
2023-04-23T13:52:04.163Z,14.87
2023-04-23T13:54:31.569Z,15.00
2023-04-23T13:56:59.048Z,15.15
2023-04-23T13:59:26.359Z,15.38
2023-04-23T14:01:53.782Z,14.90
2023-04-23T14:04:26.970Z,14.99
2023-04-23T14:06:54.541Z,15.31
2023-04-23T14:09:22.585Z,15.46
2023-04-23T14:11:49.992Z,15.68
2023-04-23T14:14:18.181Z,15.50
2023-04-23T14:16:45.502Z,15.13
2023-04-23T14:19:12.781Z,14.99
2023-04-23T14:21:40.747Z,15.17
2023-04-23T14:24:10.495Z,15.37
2023-04-23T14:29:42.233Z,14.83
2023-04-23T14:32:09.666Z,14.68
2023-04-23T14:34:36.910Z,14.94
2023-04-23T14:37:04.384Z,15.31
2023-04-23T14:39:31.939Z,15.29
2023-04-23T14:41:59.104Z,15.21
2023-04-23T14:44:27.072Z,15.31
2023-04-23T14:46:55.058Z,15.50
2023-04-23T14:49:22.342Z,15.57
2023-04-23T14:51:50.998Z,15.57
2023-04-23T14:54:19.522Z,15.71
2023-04-23T14:56:47.036Z,15.82
2023-04-23T14:59:14.384Z,15.77
2023-04-23T15:01:41.767Z,15.79
2023-04-23T15:04:10.773Z,15.50
2023-04-23T15:06:40.432Z,15.57
2023-04-23T15:09:10.742Z,15.67
2023-04-23T15:11:38.938Z,15.93
2023-04-23T15:14:23.089Z,16.29
2023-04-23T15:16:50.626Z,16.07
2023-04-23T15:19:18.580Z,16.07
2023-04-23T15:21:46.948Z,16.04
2023-04-23T15:24:15.347Z,16.08
2023-04-23T15:26:43.295Z,15.97
2023-04-23T15:29:10.907Z,16.23
2023-04-23T15:31:38.849Z,16.32
2023-04-23T15:34:08.653Z,16.56
2023-04-23T15:36:37.595Z,16.29
2023-04-23T15:39:06.443Z,15.99
2023-04-23T15:41:36.677Z,15.95
2023-04-23T15:44:06.381Z,16.06
2023-04-23T15:46:33.702Z,16.29
2023-04-23T15:49:01.068Z,16.40
2023-04-23T15:51:28.636Z,16.67
2023-04-23T15:53:55.880Z,16.52
2023-04-23T15:56:23.075Z,16.59
2023-04-23T15:58:50.455Z,16.65
2023-04-23T16:01:17.685Z,16.68
2023-04-23T16:03:57.568Z,16.58
2023-04-23T16:06:32.280Z,16.34
2023-04-23T16:08:59.655Z,16.00
2023-04-23T16:11:28.349Z,15.52
2023-04-23T16:13:57.055Z,15.59
2023-04-23T16:16:24.425Z,15.66
2023-04-23T16:18:51.705Z,15.67
2023-04-23T16:21:18.980Z,15.30
2023-04-23T16:23:46.316Z,15.32
2023-04-23T16:26:13.842Z,15.32
2023-04-23T16:28:41.118Z,15.17
2023-04-23T16:31:08.600Z,15.39
2023-04-23T16:33:36.355Z,15.52
2023-04-23T16:36:03.944Z,15.50
2023-04-23T16:38:32.526Z,15.36
2023-04-23T16:40:59.877Z,15.54
2023-04-23T16:43:27.487Z,15.61
2023-04-23T16:45:54.880Z,15.51
2023-04-23T16:48:22.232Z,15.63
2023-04-23T16:50:49.592Z,15.55
2023-04-23T16:53:17.573Z,15.59
2023-04-23T16:55:44.813Z,15.52
2023-04-23T16:58:12.179Z,15.26
2023-04-23T17:00:39.555Z,15.08
2023-04-23T17:03:07.028Z,15.38
2023-04-23T17:05:35.046Z,15.40
2023-04-23T17:08:02.412Z,15.45
2023-04-23T17:10:29.620Z,15.53
2023-04-23T17:12:56.970Z,15.70
2023-04-23T17:15:24.321Z,15.64
2023-04-23T17:17:52.964Z,15.88
2023-04-23T17:20:20.298Z,15.50
2023-04-23T17:22:47.617Z,15.67
2023-04-23T17:25:14.865Z,15.93
2023-04-23T17:27:42.321Z,15.96
2023-04-23T17:30:10.075Z,15.87
2023-04-23T17:32:37.623Z,15.84
2023-04-23T17:35:12.760Z,15.64
2023-04-23T17:37:40.407Z,15.54
2023-04-23T17:40:09.702Z,15.55
2023-04-23T17:42:36.987Z,15.62
2023-04-23T17:45:06.009Z,15.67
2023-04-23T17:47:33.487Z,15.62
2023-04-23T17:50:00.865Z,15.64
2023-04-23T17:52:28.138Z,15.63
2023-04-23T17:54:56.791Z,15.50
2023-04-23T17:57:24.314Z,15.56
2023-04-23T17:59:51.521Z,15.49
2023-04-23T18:02:18.940Z,15.34
2023-04-23T18:04:46.202Z,15.24
2023-04-23T18:07:13.504Z,15.08
2023-04-23T18:09:40.785Z,15.24
2023-04-23T18:12:08.013Z,14.78
2023-04-23T18:14:35.426Z,13.16
2023-04-23T18:17:03.585Z,12.68
2023-04-23T18:19:30.968Z,12.56
2023-04-23T18:22:02.093Z,12.58
2023-04-23T18:24:29.466Z,12.65
2023-04-23T18:26:58.581Z,12.72
2023-04-23T18:29:26.198Z,13.01
2023-04-23T18:31:53.790Z,13.22
2023-04-23T18:34:23.986Z,13.08
2023-04-23T18:36:54.945Z,13.16
2023-04-23T18:39:22.540Z,13.39
2023-04-23T18:41:50.432Z,13.12
2023-04-23T18:44:18.240Z,13.03
2023-04-23T18:46:46.575Z,13.01
2023-04-23T18:49:39.752Z,13.06
2023-04-23T18:52:07.455Z,13.01
2023-04-23T18:54:35.346Z,13.35
2023-04-23T18:57:03.264Z,13.03
2023-04-23T18:59:34.988Z,13.00
2023-04-23T19:02:03.828Z,13.30
2023-04-23T19:04:32.463Z,13.39
2023-04-23T19:07:00.519Z,12.96
2023-04-23T19:09:27.845Z,13.00
2023-04-23T19:11:55.337Z,13.39
2023-04-23T19:14:22.570Z,13.37
2023-04-23T19:16:52.777Z,13.20
2023-04-23T19:19:19.895Z,13.06
2023-04-23T19:21:47.060Z,13.27
2023-04-23T19:24:14.269Z,13.53
2023-04-23T19:26:41.542Z,13.59
2023-04-23T19:29:08.758Z,13.30
2023-04-23T19:31:36.399Z,13.26
2023-04-23T19:34:03.815Z,13.27
2023-04-23T19:36:31.076Z,13.38
2023-04-23T19:38:58.456Z,13.26
2023-04-23T19:41:26.186Z,13.10
2023-04-23T19:43:53.480Z,12.86
2023-04-23T19:46:21.161Z,13.03
2023-04-23T19:48:48.384Z,12.80
2023-04-23T19:51:15.813Z,13.09
2023-04-23T19:53:43.116Z,12.96
2023-04-23T19:56:13.153Z,12.79
2023-04-23T19:58:40.632Z,12.62
2023-04-23T20:01:08.020Z,12.71
2023-04-23T20:03:35.649Z,12.67
2023-04-23T20:06:02.975Z,12.65
2023-04-23T20:08:41.512Z,12.62
2023-04-23T20:11:10.518Z,12.48
2023-04-23T20:13:37.890Z,12.74
2023-04-23T20:16:05.180Z,12.93
2023-04-23T20:18:35.564Z,12.82
2023-04-23T20:21:02.991Z,12.55
2023-04-23T20:23:30.193Z,12.20
2023-04-23T20:25:57.407Z,12.27
2023-04-23T20:28:24.692Z,12.45
2023-04-23T20:30:51.913Z,12.29
2023-04-23T20:33:19.645Z,12.31
2023-04-23T20:35:47.703Z,12.08
2023-04-23T20:38:19.121Z,12.04
2023-04-23T20:40:47.801Z,11.94
2023-04-23T20:43:15.199Z,11.82
2023-04-23T20:45:43.177Z,11.69
2023-04-23T20:48:10.613Z,12.00
2023-04-23T20:50:37.911Z,11.78
2023-04-23T20:53:05.575Z,11.56
2023-04-23T20:55:33.039Z,11.58
2023-04-23T20:58:00.507Z,11.54
2023-04-23T21:00:27.986Z,11.47
2023-04-23T21:02:55.551Z,11.46
2023-04-23T21:05:22.901Z,11.53
2023-04-23T21:07:50.775Z,11.58
2023-04-23T21:10:18.080Z,11.54
2023-04-23T21:12:46.010Z,11.46
2023-04-23T21:15:15.214Z,11.68
2023-04-23T21:17:42.712Z,11.62
2023-04-23T21:20:10.352Z,11.60
2023-04-23T21:22:37.637Z,11.65
2023-04-23T21:25:05.389Z,11.61
2023-04-23T21:27:32.858Z,11.16
2023-04-23T21:30:07.444Z,11.12
2023-04-23T21:32:34.938Z,11.26
2023-04-23T21:35:02.192Z,11.32
2023-04-23T21:37:29.474Z,11.22
2023-04-23T21:39:56.743Z,11.32
2023-04-23T21:42:24.126Z,11.42
2023-04-23T21:44:51.426Z,11.44
2023-04-23T21:47:18.609Z,11.43
2023-04-23T21:49:46.352Z,11.40
2023-04-23T21:52:14.402Z,11.27
2023-04-23T21:54:41.587Z,11.13
2023-04-23T21:57:08.863Z,11.25
2023-04-23T21:59:36.357Z,11.07
2023-04-23T22:02:04.000Z,11.11
2023-04-23T22:04:31.449Z,11.12
2023-04-23T22:07:03.584Z,11.05
2023-04-23T22:09:31.165Z,10.81
2023-04-23T22:12:02.330Z,10.72
2023-04-23T22:14:30.104Z,11.00
2023-04-23T22:16:58.935Z,10.73
2023-04-23T22:19:26.317Z,10.56
2023-04-23T22:21:54.537Z,10.45
2023-04-23T22:24:22.332Z,10.57
2023-04-23T22:26:49.734Z,10.45
2023-04-23T22:29:17.004Z,10.59
2023-04-23T22:31:44.412Z,10.53
2023-04-23T22:34:11.704Z,10.55
2023-04-23T22:36:40.572Z,10.75
2023-04-23T22:39:07.866Z,10.57
2023-04-23T22:41:38.717Z,10.46
2023-04-23T22:44:06.632Z,10.66
2023-04-23T22:46:34.144Z,10.55
2023-04-23T22:49:02.747Z,10.38
2023-04-23T22:51:33.389Z,10.20
2023-04-23T22:54:00.725Z,10.05
2023-04-23T22:56:27.935Z,10.03
2023-04-23T22:58:55.261Z,10.27
2023-04-23T23:01:22.499Z,10.42
2023-04-23T23:03:49.881Z,10.34
2023-04-23T23:06:17.801Z,10.40
2023-04-23T23:08:45.072Z,10.32
2023-04-23T23:11:12.282Z,10.37
2023-04-23T23:13:40.618Z,10.45
2023-04-23T23:16:08.044Z,10.41
2023-04-23T23:18:35.552Z,10.23
2023-04-23T23:21:03.122Z,10.30
2023-04-23T23:23:30.515Z,10.27
2023-04-23T23:25:59.443Z,10.29
2023-04-23T23:28:27.516Z,10.26
2023-04-23T23:30:55.559Z,10.33
2023-04-23T23:33:23.392Z,10.26
2023-04-23T23:35:50.835Z,10.11
2023-04-23T23:38:18.093Z,10.32
2023-04-23T23:40:45.349Z,10.17
2023-04-23T23:43:12.670Z,10.23
2023-04-23T23:45:40.035Z,10.12
2023-04-23T23:48:07.479Z,10.05
2023-04-23T23:50:34.881Z,10.17
2023-04-23T23:53:02.396Z,9.98
2023-04-23T23:55:29.671Z,9.97
2023-04-23T23:57:56.892Z,10.09
